KSJ weather

Kasos Airport
Kasos Island, Dodecanese, Greece

Public forecast

Using degrees Celsius for public forecast. Weather courtesy of forecast.io.

Closest aviation weather report (METAR) to Kasos Airport

Closest report is Karpathos Airport, 11.5 nm (21.4 km) E. Retrieved 2020/02/17 15:20 UTC (0 seconds ago):

LGKP 171520Z 32014KT 9999 FEW018 15/08 Q1019

Closest aviation forecast (TAF) to Kasos Airport

Forecast is more than 12 hours old.

Closest forecast is Karpathos Airport, 11.5 nm (21.4 km) E. Retrieved 2019/11/28 15:42 UTC (3 months ago):

TAF TAF LGKP 281400Z 2815/2903 24012KT 9999 FEW018